TSO102 UUEE-ULLI
Flight info
| Callsign | TSO102 |
|---|---|
| Flight time | N/A |
| Altitude | 36000 |
| Route | K0845F360 TOKNU3F TOKNU L4 NUDKO T561 ODATI T875 GENPA GENPA1A |
| Aircraft | B738/M-SDE2E3FGHIRWXY/LB1 |
Departure
| Time | 2026-05-07 04:05 |
|---|---|
| Airport | Sheremetyevo International Airport (UUEE) |
Arrival
| Time | N/A |
|---|---|
| Airport | Pulkovo Airport (ULLI) |
| Time | Latitude | Longitude | Altitude | Speed | Heading |
|---|---|---|---|---|---|
| 2026-05-07 03:46 | 55.97823 | 37.40983 | 623 ft | 0 kts | 75° |
| 2026-05-07 03:53 | 55.97820 | 37.40966 | 623 ft | 2 kts | 75° |
| 2026-05-07 03:53 | 55.97816 | 37.40940 | 623 ft | 2 kts | 75° |
| 2026-05-07 03:53 | 55.97812 | 37.40915 | 623 ft | 2 kts | 74° |
| 2026-05-07 03:53 | 55.97809 | 37.40889 | 623 ft | 2 kts | 75° |
| 2026-05-07 03:54 | 55.97808 | 37.40862 | 623 ft | 2 kts | 111° |
| 2026-05-07 03:54 | 55.97817 | 37.40840 | 623 ft | 2 kts | 146° |
| 2026-05-07 03:54 | 55.97824 | 37.40834 | 623 ft | 1 kts | 165° |
| 2026-05-07 03:54 | 55.97830 | 37.40831 | 623 ft | 0 kts | 165° |
| 2026-05-07 03:57 | 55.97817 | 37.40837 | 623 ft | 5 kts | 165° |
| 2026-05-07 03:57 | 55.97752 | 37.40868 | 623 ft | 12 kts | 164° |
| 2026-05-07 03:58 | 55.97651 | 37.40916 | 622 ft | 16 kts | 165° |
| 2026-05-07 03:58 | 55.97612 | 37.40991 | 622 ft | 9 kts | 91° |
| 2026-05-07 03:58 | 55.97612 | 37.41108 | 623 ft | 6 kts | 127° |
| 2026-05-07 03:58 | 55.97556 | 37.41153 | 623 ft | 10 kts | 179° |
| 2026-05-07 03:59 | 55.97507 | 37.41038 | 620 ft | 15 kts | 253° |
| 2026-05-07 03:59 | 55.97474 | 37.40819 | 619 ft | 15 kts | 255° |
| 2026-05-07 03:59 | 55.97449 | 37.40653 | 619 ft | 15 kts | 254° |
| 2026-05-07 03:59 | 55.97418 | 37.40450 | 619 ft | 18 kts | 254° |
| 2026-05-07 04:00 | 55.97387 | 37.40237 | 619 ft | 17 kts | 255° |
| 2026-05-07 04:00 | 55.97351 | 37.40002 | 616 ft | 22 kts | 257° |
| 2026-05-07 04:00 | 55.97317 | 37.39765 | 616 ft | 15 kts | 254° |
| 2026-05-07 04:00 | 55.97286 | 37.39560 | 614 ft | 19 kts | 253° |
| 2026-05-07 04:01 | 55.97243 | 37.39303 | 613 ft | 23 kts | 262° |
| 2026-05-07 04:01 | 55.97209 | 37.39040 | 613 ft | 23 kts | 255° |
| 2026-05-07 04:01 | 55.97165 | 37.38743 | 611 ft | 19 kts | 255° |
| 2026-05-07 04:01 | 55.97111 | 37.38657 | 611 ft | 8 kts | 181° |
| 2026-05-07 04:02 | 55.97046 | 37.38682 | 612 ft | 10 kts | 163° |
| 2026-05-07 04:02 | 55.96968 | 37.38720 | 613 ft | 13 kts | 165° |
| 2026-05-07 04:02 | 55.96869 | 37.38766 | 613 ft | 16 kts | 166° |
| 2026-05-07 04:02 | 55.96767 | 37.38830 | 614 ft | 9 kts | 120° |
| 2026-05-07 04:03 | 55.96759 | 37.38930 | 616 ft | 8 kts | 80° |
| 2026-05-07 04:03 | 55.96763 | 37.38956 | 617 ft | 0 kts | 76° |
| 2026-05-07 04:03 | 55.96763 | 37.38958 | 617 ft | 0 kts | 76° |
| 2026-05-07 04:04 | 55.96792 | 37.39164 | 620 ft | 49 kts | 76° |
| 2026-05-07 04:04 | 55.96922 | 37.40150 | 623 ft | 111 kts | 73° |
| 2026-05-07 04:04 | 55.97181 | 37.41780 | 636 ft | 159 kts | 76° |
| 2026-05-07 04:04 | 55.97500 | 37.43826 | 848 ft | 182 kts | 77° |
| 2026-05-07 04:05 | 55.97846 | 37.46017 | 1493 ft | 187 kts | 83° |
| 2026-05-07 04:05 | 55.97839 | 37.48438 | 1843 ft | 207 kts | 102° |
| 2026-05-07 04:05 | 55.97687 | 37.51045 | 2421 ft | 219 kts | 97° |
| 2026-05-07 04:05 | 55.97671 | 37.53874 | 2801 ft | 239 kts | 92° |
| 2026-05-07 04:06 | 55.97711 | 37.57021 | 3060 ft | 266 kts | 92° |
| 2026-05-07 04:06 | 55.97760 | 37.60393 | 3496 ft | 283 kts | 91° |
| 2026-05-07 04:06 | 55.97856 | 37.63934 | 4054 ft | 291 kts | 86° |
| 2026-05-07 04:06 | 55.98340 | 37.67469 | 3976 ft | 295 kts | 64° |
| 2026-05-07 04:07 | 55.99628 | 37.70190 | 3947 ft | 293 kts | 32° |
| 2026-05-07 04:07 | 56.01451 | 37.71690 | 4000 ft | 289 kts | 16° |
| 2026-05-07 04:07 | 56.03379 | 37.72718 | 3996 ft | 289 kts | 13° |
| 2026-05-07 04:07 | 56.05345 | 37.73262 | 3992 ft | 285 kts | 357° |
| 2026-05-07 04:08 | 56.07290 | 37.72837 | 3991 ft | 279 kts | 338° |
| 2026-05-07 04:08 | 56.08924 | 37.71060 | 4470 ft | 276 kts | 307° |
| 2026-05-07 04:08 | 56.10019 | 37.68448 | 5522 ft | 263 kts | 300° |
| 2026-05-07 04:08 | 56.11078 | 37.65767 | 5922 ft | 265 kts | 300° |
| 2026-05-07 04:09 | 56.11971 | 37.62918 | 5985 ft | 259 kts | 285° |
| 2026-05-07 04:09 | 56.12165 | 37.59767 | 6098 ft | 261 kts | 259° |
| 2026-05-07 04:09 | 56.11628 | 37.56708 | 6818 ft | 260 kts | 249° |
| 2026-05-07 04:09 | 56.11021 | 37.53652 | 6965 ft | 259 kts | 251° |
| 2026-05-07 04:10 | 56.10475 | 37.50668 | 6982 ft | 251 kts | 252° |
| 2026-05-07 04:10 | 56.09937 | 37.47684 | 6988 ft | 252 kts | 251° |
| 2026-05-07 04:10 | 56.09391 | 37.44738 | 6989 ft | 251 kts | 251° |
| 2026-05-07 04:10 | 56.08831 | 37.41775 | 6992 ft | 250 kts | 251° |
| 2026-05-07 04:11 | 56.08271 | 37.38818 | 6993 ft | 251 kts | 251° |
| 2026-05-07 04:11 | 56.07710 | 37.35860 | 6991 ft | 251 kts | 251° |
| 2026-05-07 04:11 | 56.07146 | 37.32916 | 6988 ft | 251 kts | 250° |
| 2026-05-07 04:11 | 56.06546 | 37.29981 | 6987 ft | 252 kts | 249° |
| 2026-05-07 04:12 | 56.05927 | 37.27070 | 6989 ft | 251 kts | 249° |
| 2026-05-07 04:12 | 56.05307 | 37.24173 | 6988 ft | 251 kts | 249° |
| 2026-05-07 04:12 | 56.04686 | 37.21262 | 6986 ft | 251 kts | 249° |
| 2026-05-07 04:12 | 56.04066 | 37.18351 | 6988 ft | 251 kts | 249° |
| 2026-05-07 04:13 | 56.03450 | 37.15442 | 6995 ft | 251 kts | 249° |
| 2026-05-07 04:13 | 56.02843 | 37.12533 | 6992 ft | 250 kts | 250° |
| 2026-05-07 04:13 | 56.02317 | 37.09512 | 7086 ft | 263 kts | 254° |
| 2026-05-07 04:13 | 56.01889 | 37.06397 | 8115 ft | 255 kts | 256° |
| 2026-05-07 04:14 | 56.01492 | 37.03316 | 8910 ft | 258 kts | 256° |
| 2026-05-07 04:14 | 56.01091 | 37.00230 | 9648 ft | 262 kts | 256° |
| 2026-05-07 04:14 | 56.00665 | 36.97020 | 9939 ft | 263 kts | 256° |
| 2026-05-07 04:14 | 56.00240 | 36.93853 | 9983 ft | 263 kts | 256° |
| 2026-05-07 04:15 | 55.99815 | 36.90715 | 9992 ft | 262 kts | 256° |
| 2026-05-07 04:15 | 55.99383 | 36.87553 | 9993 ft | 261 kts | 256° |
| 2026-05-07 04:15 | 55.99005 | 36.84376 | 9999 ft | 262 kts | 262° |
| 2026-05-07 04:15 | 55.99077 | 36.81129 | 10006 ft | 264 kts | 282° |
| 2026-05-07 04:16 | 55.99863 | 36.78134 | 10041 ft | 286 kts | 301° |
| 2026-05-07 04:16 | 56.01233 | 36.75395 | 10581 ft | 303 kts | 311° |
| 2026-05-07 04:16 | 56.02806 | 36.72909 | 11378 ft | 308 kts | 314° |
| 2026-05-07 04:16 | 56.04448 | 36.70456 | 12224 ft | 310 kts | 315° |
| 2026-05-07 04:17 | 56.06111 | 36.67978 | 13049 ft | 314 kts | 315° |
| 2026-05-07 04:17 | 56.07776 | 36.65472 | 13848 ft | 317 kts | 314° |
| 2026-05-07 04:17 | 56.09457 | 36.62915 | 14649 ft | 321 kts | 315° |
| 2026-05-07 04:17 | 56.11282 | 36.60572 | 15388 ft | 332 kts | 326° |
| 2026-05-07 04:18 | 56.13484 | 36.59140 | 15821 ft | 348 kts | 346° |
| 2026-05-07 04:18 | 56.15897 | 36.59193 | 15900 ft | 358 kts | 6° |
| 2026-05-07 04:18 | 56.18322 | 36.60198 | 15893 ft | 357 kts | 8° |
| 2026-05-07 04:18 | 56.20763 | 36.60670 | 15887 ft | 348 kts | 351° |
| 2026-05-07 04:19 | 56.23059 | 36.59584 | 15922 ft | 346 kts | 329° |
| 2026-05-07 04:19 | 56.25071 | 36.57143 | 16279 ft | 354 kts | 314° |
| 2026-05-07 04:19 | 56.26911 | 36.54076 | 16626 ft | 368 kts | 312° |
| 2026-05-07 04:19 | 56.28773 | 36.50886 | 17026 ft | 382 kts | 313° |
| 2026-05-07 04:20 | 56.30736 | 36.47544 | 17730 ft | 387 kts | 313° |
| 2026-05-07 04:20 | 56.32679 | 36.44224 | 18449 ft | 391 kts | 312° |
| 2026-05-07 04:20 | 56.34539 | 36.40716 | 19157 ft | 392 kts | 307° |
| 2026-05-07 04:21 | 56.37432 | 36.32447 | 20529 ft | 393 kts | 292° |
| 2026-05-07 04:21 | 56.38512 | 36.27919 | 21140 ft | 397 kts | 289° |
| 2026-05-07 04:21 | 56.39515 | 36.23257 | 21781 ft | 400 kts | 288° |
| 2026-05-07 04:21 | 56.40491 | 36.18541 | 22416 ft | 404 kts | 288° |
| 2026-05-07 04:22 | 56.41465 | 36.13783 | 23054 ft | 407 kts | 287° |
| 2026-05-07 04:22 | 56.42439 | 36.09033 | 23641 ft | 411 kts | 288° |
| 2026-05-07 04:22 | 56.43448 | 36.04201 | 24263 ft | 414 kts | 288° |
| 2026-05-07 04:22 | 56.44557 | 35.99398 | 24835 ft | 419 kts | 292° |
| 2026-05-07 04:23 | 56.45968 | 35.94772 | 25403 ft | 426 kts | 299° |
| 2026-05-07 04:23 | 56.47673 | 35.90344 | 25972 ft | 432 kts | 303° |
| 2026-05-07 04:23 | 56.49529 | 35.86064 | 26515 ft | 436 kts | 306° |
| 2026-05-07 04:23 | 56.51446 | 35.81880 | 27067 ft | 440 kts | 306° |
| 2026-05-07 04:24 | 56.53426 | 35.77647 | 27630 ft | 443 kts | 307° |
| 2026-05-07 04:24 | 56.55439 | 35.73361 | 28146 ft | 446 kts | 307° |
| 2026-05-07 04:24 | 56.57433 | 35.69098 | 28663 ft | 449 kts | 307° |
| 2026-05-07 04:24 | 56.59428 | 35.64803 | 29314 ft | 448 kts | 306° |
| 2026-05-07 04:25 | 56.61414 | 35.60508 | 30131 ft | 444 kts | 306° |
| 2026-05-07 04:25 | 56.63383 | 35.56229 | 30818 ft | 441 kts | 306° |
| 2026-05-07 04:25 | 56.65313 | 35.52016 | 31435 ft | 439 kts | 306° |
| 2026-05-07 04:25 | 56.67257 | 35.47753 | 31992 ft | 439 kts | 306° |
| 2026-05-07 04:26 | 56.69192 | 35.43498 | 32579 ft | 437 kts | 306° |
| 2026-05-07 04:26 | 56.71114 | 35.39255 | 33088 ft | 436 kts | 306° |
| 2026-05-07 04:26 | 56.73032 | 35.35013 | 33614 ft | 435 kts | 305° |
| 2026-05-07 04:26 | 56.74955 | 35.30760 | 34210 ft | 431 kts | 304° |
| 2026-05-07 04:27 | 56.76867 | 35.26519 | 34724 ft | 430 kts | 304° |
| 2026-05-07 04:27 | 56.78751 | 35.22327 | 35113 ft | 429 kts | 304° |
| 2026-05-07 04:27 | 56.80665 | 35.18056 | 35474 ft | 429 kts | 304° |
| 2026-05-07 04:27 | 56.82552 | 35.13839 | 35811 ft | 428 kts | 304° |
| 2026-05-07 04:28 | 56.86346 | 35.05336 | 35887 ft | 429 kts | 304° |
| 2026-05-07 04:28 | 56.90219 | 34.97065 | 35895 ft | 430 kts | 309° |
| 2026-05-07 04:29 | 56.94853 | 34.89893 | 35906 ft | 438 kts | 319° |
| 2026-05-07 04:29 | 56.99923 | 34.83686 | 35910 ft | 440 kts | 322° |
| 2026-05-07 04:30 | 57.05083 | 34.77679 | 35911 ft | 439 kts | 322° |
| 2026-05-07 04:30 | 57.10203 | 34.71656 | 35910 ft | 438 kts | 322° |
| 2026-05-07 04:31 | 57.15310 | 34.65559 | 35913 ft | 438 kts | 321° |
| 2026-05-07 04:31 | 57.20428 | 34.59386 | 35919 ft | 437 kts | 321° |
| 2026-05-07 04:32 | 57.25491 | 34.53244 | 35918 ft | 438 kts | 321° |
| 2026-05-07 04:32 | 57.30579 | 34.47045 | 35911 ft | 437 kts | 321° |
| 2026-05-07 04:33 | 57.35645 | 34.40845 | 35919 ft | 438 kts | 321° |
| 2026-05-07 04:33 | 57.40701 | 34.34642 | 35916 ft | 437 kts | 320° |
| 2026-05-07 04:34 | 57.45797 | 34.28362 | 35916 ft | 438 kts | 320° |
| 2026-05-07 04:34 | 57.50832 | 34.22144 | 35915 ft | 437 kts | 320° |
| 2026-05-07 04:35 | 57.55912 | 34.15845 | 35925 ft | 438 kts | 320° |
| 2026-05-07 04:35 | 57.60961 | 34.09562 | 35920 ft | 438 kts | 319° |
| 2026-05-07 04:36 | 57.66029 | 34.03241 | 35922 ft | 437 kts | 319° |
| 2026-05-07 04:36 | 57.71057 | 33.96947 | 35924 ft | 438 kts | 319° |
| 2026-05-07 04:37 | 57.76137 | 33.90566 | 35924 ft | 438 kts | 319° |
| 2026-05-07 04:37 | 57.81182 | 33.84201 | 35928 ft | 438 kts | 319° |
| 2026-05-07 04:38 | 57.86236 | 33.77802 | 35932 ft | 438 kts | 319° |
| 2026-05-07 04:38 | 57.91149 | 33.71078 | 35926 ft | 434 kts | 314° |
| 2026-05-07 04:39 | 57.95793 | 33.63897 | 35931 ft | 433 kts | 313° |
| 2026-05-07 04:39 | 58.00415 | 33.56656 | 35929 ft | 434 kts | 313° |
| 2026-05-07 04:40 | 58.05040 | 33.49478 | 35918 ft | 435 kts | 314° |
| 2026-05-07 04:40 | 58.09737 | 33.42240 | 35927 ft | 434 kts | 314° |
| 2026-05-07 04:41 | 58.14379 | 33.35083 | 35940 ft | 435 kts | 314° |
| 2026-05-07 04:41 | 58.19059 | 33.27851 | 35939 ft | 432 kts | 313° |
| 2026-05-07 04:42 | 58.23705 | 33.20655 | 35939 ft | 434 kts | 313° |
| 2026-05-07 04:42 | 58.28434 | 33.13290 | 35938 ft | 436 kts | 313° |
| 2026-05-07 04:43 | 58.33095 | 33.06023 | 35938 ft | 434 kts | 313° |
| 2026-05-07 04:43 | 58.37724 | 32.98777 | 35950 ft | 435 kts | 313° |
| 2026-05-07 04:44 | 58.42373 | 32.91473 | 35946 ft | 433 kts | 313° |
| 2026-05-07 04:44 | 58.46986 | 32.84210 | 35762 ft | 430 kts | 313° |
| 2026-05-07 04:45 | 58.49271 | 32.80609 | 35333 ft | 429 kts | 312° |
| 2026-05-07 04:45 | 58.51583 | 32.76950 | 34641 ft | 434 kts | 312° |
| 2026-05-07 04:45 | 58.53900 | 32.73265 | 33732 ft | 438 kts | 312° |
| 2026-05-07 04:45 | 58.56224 | 32.69567 | 32910 ft | 439 kts | 312° |
| 2026-05-07 04:46 | 58.58571 | 32.65831 | 32075 ft | 440 kts | 313° |
| 2026-05-07 04:46 | 58.60892 | 32.62130 | 31233 ft | 441 kts | 313° |
| 2026-05-07 04:46 | 58.63237 | 32.58386 | 30355 ft | 442 kts | 313° |
| 2026-05-07 04:46 | 58.65611 | 32.54590 | 29431 ft | 443 kts | 313° |
| 2026-05-07 04:47 | 58.67931 | 32.50872 | 28509 ft | 443 kts | 313° |
| 2026-05-07 04:47 | 58.70293 | 32.47077 | 27538 ft | 444 kts | 313° |
| 2026-05-07 04:47 | 58.72652 | 32.43283 | 26568 ft | 445 kts | 314° |
| 2026-05-07 04:47 | 58.75001 | 32.39538 | 25915 ft | 438 kts | 314° |
| 2026-05-07 04:48 | 58.77316 | 32.35842 | 25294 ft | 431 kts | 314° |
| 2026-05-07 04:48 | 58.79593 | 32.32175 | 24646 ft | 426 kts | 313° |
| 2026-05-07 04:48 | 58.81844 | 32.28521 | 23964 ft | 422 kts | 313° |
| 2026-05-07 04:48 | 58.84063 | 32.24911 | 23283 ft | 418 kts | 313° |
| 2026-05-07 04:49 | 58.86260 | 32.21330 | 22603 ft | 415 kts | 313° |
| 2026-05-07 04:49 | 58.88448 | 32.17754 | 21912 ft | 412 kts | 313° |
| 2026-05-07 04:49 | 58.90628 | 32.14186 | 21214 ft | 409 kts | 314° |
| 2026-05-07 04:49 | 58.92777 | 32.10665 | 20518 ft | 406 kts | 314° |
| 2026-05-07 04:50 | 58.94897 | 32.07186 | 19833 ft | 404 kts | 314° |
| 2026-05-07 04:50 | 58.97041 | 32.03664 | 19130 ft | 401 kts | 314° |
| 2026-05-07 04:50 | 58.99164 | 32.00172 | 18433 ft | 398 kts | 314° |
| 2026-05-07 04:50 | 59.01239 | 31.96754 | 17757 ft | 396 kts | 314° |
| 2026-05-07 04:51 | 59.03314 | 31.93331 | 17077 ft | 393 kts | 314° |
| 2026-05-07 04:51 | 59.05397 | 31.89895 | 16384 ft | 390 kts | 314° |
| 2026-05-07 04:51 | 59.07429 | 31.86546 | 15698 ft | 387 kts | 314° |
| 2026-05-07 04:51 | 59.09460 | 31.83185 | 15026 ft | 383 kts | 315° |
| 2026-05-07 04:52 | 59.11447 | 31.79845 | 14361 ft | 379 kts | 314° |
| 2026-05-07 04:52 | 59.13355 | 31.76382 | 13703 ft | 374 kts | 311° |
| 2026-05-07 04:52 | 59.15196 | 31.72848 | 13036 ft | 370 kts | 311° |
| 2026-05-07 04:52 | 59.17004 | 31.69319 | 12375 ft | 367 kts | 311° |
| 2026-05-07 04:53 | 59.18782 | 31.65866 | 11725 ft | 363 kts | 312° |
| 2026-05-07 04:53 | 59.20572 | 31.62421 | 11185 ft | 357 kts | 313° |
| 2026-05-07 04:53 | 59.22301 | 31.59116 | 10894 ft | 344 kts | 313° |
| 2026-05-07 04:53 | 59.23970 | 31.55936 | 10740 ft | 328 kts | 313° |
| 2026-05-07 04:54 | 59.25567 | 31.52891 | 10600 ft | 314 kts | 313° |
| 2026-05-07 04:54 | 59.27084 | 31.49992 | 10453 ft | 301 kts | 313° |
| 2026-05-07 04:54 | 59.28556 | 31.47168 | 10307 ft | 289 kts | 313° |
| 2026-05-07 04:54 | 59.29938 | 31.44508 | 10146 ft | 279 kts | 313° |
| 2026-05-07 04:55 | 59.31318 | 31.41849 | 9821 ft | 276 kts | 314° |
| 2026-05-07 04:55 | 59.32684 | 31.39218 | 9446 ft | 276 kts | 314° |
| 2026-05-07 04:55 | 59.34044 | 31.36604 | 9096 ft | 274 kts | 315° |
| 2026-05-07 04:55 | 59.35395 | 31.34010 | 8751 ft | 273 kts | 314° |
| 2026-05-07 04:56 | 59.36737 | 31.31427 | 8408 ft | 271 kts | 315° |
| 2026-05-07 04:56 | 59.38068 | 31.28854 | 8083 ft | 268 kts | 315° |
| 2026-05-07 04:56 | 59.39379 | 31.26316 | 7731 ft | 264 kts | 316° |
| 2026-05-07 04:56 | 59.40686 | 31.23787 | 7397 ft | 261 kts | 316° |
| 2026-05-07 04:57 | 59.41959 | 31.21321 | 7067 ft | 258 kts | 317° |
| 2026-05-07 04:57 | 59.43214 | 31.18883 | 6739 ft | 255 kts | 317° |
| 2026-05-07 04:57 | 59.44472 | 31.16433 | 6422 ft | 252 kts | 318° |
| 2026-05-07 04:57 | 59.45702 | 31.14043 | 6105 ft | 250 kts | 318° |
| 2026-05-07 04:58 | 59.46940 | 31.11632 | 5787 ft | 248 kts | 318° |
| 2026-05-07 04:58 | 59.48144 | 31.09281 | 5484 ft | 246 kts | 318° |
| 2026-05-07 04:58 | 59.49348 | 31.06927 | 5206 ft | 242 kts | 319° |
| 2026-05-07 04:58 | 59.50523 | 31.04638 | 5091 ft | 231 kts | 320° |
| 2026-05-07 04:59 | 59.51752 | 31.02752 | 5007 ft | 216 kts | 337° |
| 2026-05-07 04:59 | 59.53113 | 31.02120 | 4962 ft | 196 kts | 7° |
| 2026-05-07 04:59 | 59.54452 | 31.02296 | 4963 ft | 191 kts | 9° |
| 2026-05-07 04:59 | 59.55790 | 31.02430 | 4962 ft | 193 kts | 7° |
| 2026-05-07 05:00 | 59.57123 | 31.02503 | 4962 ft | 193 kts | 6° |
| 2026-05-07 05:00 | 59.58463 | 31.02570 | 4961 ft | 193 kts | 7° |
| 2026-05-07 05:00 | 59.59779 | 31.02950 | 4960 ft | 188 kts | 26° |
| 2026-05-07 05:00 | 59.60920 | 31.04133 | 4966 ft | 185 kts | 35° |
| 2026-05-07 05:01 | 59.62027 | 31.05434 | 4964 ft | 185 kts | 34° |
| 2026-05-07 05:01 | 59.63155 | 31.06662 | 4964 ft | 186 kts | 32° |
| 2026-05-07 05:01 | 59.64288 | 31.07861 | 4964 ft | 185 kts | 32° |
| 2026-05-07 05:01 | 59.65417 | 31.09080 | 4965 ft | 186 kts | 33° |
| 2026-05-07 05:02 | 59.66555 | 31.10302 | 4966 ft | 186 kts | 32° |
| 2026-05-07 05:02 | 59.67759 | 31.11228 | 4964 ft | 190 kts | 14° |
| 2026-05-07 05:02 | 59.69094 | 31.11479 | 4966 ft | 192 kts | 8° |
| 2026-05-07 05:02 | 59.70433 | 31.11637 | 4962 ft | 192 kts | 9° |
| 2026-05-07 05:03 | 59.71744 | 31.11875 | 4963 ft | 192 kts | 11° |
| 2026-05-07 05:03 | 59.73088 | 31.12161 | 4963 ft | 192 kts | 11° |
| 2026-05-07 05:03 | 59.74403 | 31.12445 | 4966 ft | 192 kts | 11° |
| 2026-05-07 05:03 | 59.75742 | 31.12726 | 4966 ft | 192 kts | 9° |
| 2026-05-07 05:04 | 59.77068 | 31.12535 | 4968 ft | 197 kts | 350° |
| 2026-05-07 05:04 | 59.78384 | 31.11696 | 4969 ft | 198 kts | 346° |
| 2026-05-07 05:04 | 59.79690 | 31.10829 | 4967 ft | 198 kts | 346° |
| 2026-05-07 05:04 | 59.80944 | 31.09679 | 4966 ft | 203 kts | 327° |
| 2026-05-07 05:05 | 59.81839 | 31.07500 | 4971 ft | 209 kts | 294° |
| 2026-05-07 05:05 | 59.82135 | 31.04668 | 4975 ft | 210 kts | 271° |
| 2026-05-07 05:05 | 59.81913 | 31.01835 | 4968 ft | 210 kts | 245° |
| 2026-05-07 05:05 | 59.81086 | 30.99475 | 4978 ft | 208 kts | 223° |
| 2026-05-07 05:06 | 59.80082 | 30.97404 | 4972 ft | 208 kts | 223° |
| 2026-05-07 05:06 | 59.79104 | 30.95300 | 4968 ft | 208 kts | 225° |
| 2026-05-07 05:06 | 59.78142 | 30.93180 | 4968 ft | 208 kts | 225° |
| 2026-05-07 05:06 | 59.77187 | 30.91047 | 4971 ft | 208 kts | 226° |
| 2026-05-07 05:07 | 59.76227 | 30.88896 | 4969 ft | 208 kts | 225° |
| 2026-05-07 05:07 | 59.75267 | 30.86767 | 4945 ft | 209 kts | 225° |
| 2026-05-07 05:07 | 59.74288 | 30.84612 | 4794 ft | 210 kts | 225° |
| 2026-05-07 05:07 | 59.73333 | 30.82471 | 4574 ft | 209 kts | 225° |
| 2026-05-07 05:08 | 59.72369 | 30.80326 | 4316 ft | 209 kts | 225° |
| 2026-05-07 05:08 | 59.71390 | 30.78199 | 4047 ft | 209 kts | 224° |
| 2026-05-07 05:08 | 59.70408 | 30.76061 | 3800 ft | 209 kts | 224° |
| 2026-05-07 05:08 | 59.69450 | 30.73921 | 3600 ft | 207 kts | 229° |
| 2026-05-07 05:09 | 59.68797 | 30.71392 | 3523 ft | 210 kts | 257° |
| 2026-05-07 05:09 | 59.68762 | 30.68555 | 3467 ft | 210 kts | 283° |
| 2026-05-07 05:09 | 59.69309 | 30.65932 | 3396 ft | 207 kts | 311° |
| 2026-05-07 05:09 | 59.70376 | 30.64133 | 3148 ft | 198 kts | 339° |
| 2026-05-07 05:10 | 59.71583 | 30.62990 | 2998 ft | 188 kts | 340° |
| 2026-05-07 05:10 | 59.72751 | 30.61850 | 2879 ft | 187 kts | 339° |
| 2026-05-07 05:10 | 59.73905 | 30.60687 | 2728 ft | 188 kts | 338° |
| 2026-05-07 05:10 | 59.75064 | 30.59500 | 2557 ft | 187 kts | 334° |
| 2026-05-07 05:11 | 59.76043 | 30.57822 | 2455 ft | 191 kts | 304° |
| 2026-05-07 05:11 | 59.76456 | 30.55328 | 2479 ft | 193 kts | 281° |
| 2026-05-07 05:11 | 59.76738 | 30.52806 | 2427 ft | 187 kts | 287° |
| 2026-05-07 05:11 | 59.77099 | 30.50338 | 2231 ft | 185 kts | 288° |
| 2026-05-07 05:12 | 59.77462 | 30.47906 | 1971 ft | 184 kts | 288° |
| 2026-05-07 05:12 | 59.77824 | 30.45466 | 1700 ft | 186 kts | 288° |
| 2026-05-07 05:12 | 59.78176 | 30.43098 | 1458 ft | 175 kts | 287° |
| 2026-05-07 05:12 | 59.78509 | 30.40876 | 1255 ft | 157 kts | 289° |
| 2026-05-07 05:13 | 59.78810 | 30.38867 | 1033 ft | 151 kts | 287° |
| 2026-05-07 05:13 | 59.79096 | 30.36912 | 825 ft | 147 kts | 290° |
| 2026-05-07 05:13 | 59.79399 | 30.34977 | 640 ft | 147 kts | 287° |
| 2026-05-07 05:13 | 59.79689 | 30.33043 | 413 ft | 145 kts | 288° |
| 2026-05-07 05:14 | 59.79970 | 30.31190 | 237 ft | 139 kts | 288° |
| 2026-05-07 05:14 | 59.80268 | 30.29351 | 87 ft | 140 kts | 286° |
| 2026-05-07 05:14 | 59.80535 | 30.27576 | 86 ft | 114 kts | 287° |